createdAt,value
2018-02-18T00:00:16.427Z,38.44
2018-02-18T00:01:16.314Z,38.52
2018-02-18T00:02:16.317Z,38.46
2018-02-18T00:03:16.308Z,38.48
2018-02-18T00:04:16.295Z,38.46
2018-02-18T00:05:16.319Z,38.62
2018-02-18T00:06:16.294Z,38.43
2018-02-18T00:07:16.292Z,38.44
2018-02-18T00:08:16.401Z,38.46
2018-02-18T00:09:16.326Z,38.38
2018-02-18T00:10:16.312Z,38.5
2018-02-18T00:11:16.293Z,38.56
2018-02-18T00:12:16.315Z,38.6
2018-02-18T00:13:16.293Z,38.42
2018-02-18T00:14:16.290Z,38.49
2018-02-18T00:15:16.297Z,38.55
2018-02-18T00:16:16.394Z,38.47
2018-02-18T00:17:16.299Z,38.66
2018-02-18T00:18:16.300Z,38.43
2018-02-18T00:19:16.332Z,38.35
2018-02-18T00:20:16.286Z,38.52
2018-02-18T00:21:16.296Z,38.52
2018-02-18T00:22:16.288Z,38.54
2018-02-18T00:23:16.295Z,38.58
2018-02-18T00:24:16.341Z,38.57
2018-02-18T00:25:16.296Z,38.61
2018-02-18T00:26:16.281Z,38.54
2018-02-18T00:27:16.283Z,38.56
2018-02-18T00:28:16.294Z,38.47
2018-02-18T00:29:16.287Z,38.62
2018-02-18T00:30:16.296Z,38.52
2018-02-18T00:31:16.280Z,38.58
2018-02-18T00:32:16.281Z,38.55
2018-02-18T00:33:16.299Z,38.53
2018-02-18T00:34:16.308Z,38.52
2018-02-18T00:35:16.284Z,38.48
2018-02-18T00:36:16.311Z,38.59
2018-02-18T00:37:16.286Z,38.56
2018-02-18T00:38:16.291Z,38.53
2018-02-18T00:39:16.300Z,38.55
2018-02-18T00:40:16.302Z,38.6
2018-02-18T00:41:16.315Z,38.61
2018-02-18T00:42:16.287Z,38.5
2018-02-18T00:43:16.301Z,38.58
2018-02-18T00:44:16.275Z,38.52
2018-02-18T00:45:16.290Z,38.5
2018-02-18T00:46:16.282Z,38.56
2018-02-18T00:47:16.314Z,38.45
2018-02-18T00:48:16.277Z,38.52
2018-02-18T00:49:16.289Z,38.58
2018-02-18T00:50:16.305Z,38.42
2018-02-18T00:51:16.278Z,38.55
2018-02-18T00:52:16.315Z,38.54
2018-02-18T00:53:16.269Z,38.57
2018-02-18T00:54:16.294Z,38.54
2018-02-18T00:55:16.278Z,38.52
2018-02-18T00:56:16.287Z,38.55
2018-02-18T00:57:16.272Z,38.5
2018-02-18T00:58:16.314Z,38.42
2018-02-18T00:59:16.300Z,38.48
2018-02-18T01:00:16.279Z,38.5
2018-02-18T01:01:16.300Z,38.59
2018-02-18T01:02:16.266Z,38.61
2018-02-18T01:03:16.286Z,38.5
2018-02-18T01:04:16.453Z,38.63
2018-02-18T01:05:16.278Z,38.48
2018-02-18T01:06:16.284Z,38.48
2018-02-18T01:07:16.316Z,38.5
2018-02-18T01:08:16.288Z,38.43
2018-02-18T01:09:16.304Z,38.67
2018-02-18T01:10:16.265Z,38.39
2018-02-18T01:11:16.288Z,38.41
2018-02-18T01:12:16.270Z,38.68
2018-02-18T01:13:16.269Z,38.38
2018-02-18T01:14:16.272Z,38.42
2018-02-18T01:15:16.284Z,38.52
2018-02-18T01:16:16.271Z,38.4
2018-02-18T01:17:16.286Z,38.43
2018-02-18T01:18:16.287Z,38.39
2018-02-18T01:19:16.268Z,38.48
2018-02-18T01:20:16.538Z,38.63
2018-02-18T01:21:16.370Z,38.46
2018-02-18T01:22:16.271Z,38.53
2018-02-18T01:23:16.237Z,38.56
2018-02-18T01:24:16.264Z,38.47
2018-02-18T01:25:16.299Z,38.46
2018-02-18T01:26:16.282Z,38.45
2018-02-18T01:27:16.261Z,38.42
2018-02-18T01:28:16.277Z,38.49
2018-02-18T01:29:16.270Z,38.56
2018-02-18T01:30:16.272Z,38.59
2018-02-18T01:31:16.283Z,38.56
2018-02-18T01:32:16.290Z,38.47
2018-02-18T01:33:16.255Z,38.62
2018-02-18T01:34:16.267Z,38.59
2018-02-18T01:35:16.282Z,38.51
2018-02-18T01:36:16.296Z,38.43
2018-02-18T01:37:16.261Z,38.55
2018-02-18T01:38:16.271Z,38.63
2018-02-18T01:39:16.272Z,38.67
2018-02-18T01:40:16.266Z,38.53
2018-02-18T01:41:16.302Z,38.53
2018-02-18T01:42:16.295Z,38.48
2018-02-18T01:43:16.255Z,38.61
2018-02-18T01:44:16.282Z,38.63
2018-02-18T01:45:16.280Z,38.52
2018-02-18T01:46:16.257Z,38.41
2018-02-18T01:47:16.267Z,38.59
2018-02-18T01:48:16.266Z,38.74
2018-02-18T01:49:16.261Z,38.5
2018-02-18T01:50:16.257Z,38.61
2018-02-18T01:51:16.268Z,38.5
2018-02-18T01:52:16.301Z,38.53
2018-02-18T01:53:16.259Z,38.6
2018-02-18T01:54:16.277Z,38.51
2018-02-18T01:55:16.258Z,38.57
2018-02-18T01:56:16.263Z,38.55
2018-02-18T01:57:16.262Z,38.55
2018-02-18T01:58:16.257Z,38.66
2018-02-18T01:59:16.254Z,38.5
2018-02-18T02:00:16.262Z,38.53
2018-02-18T02:01:16.259Z,38.44
2018-02-18T02:02:16.259Z,38.38
2018-02-18T02:03:16.263Z,38.6
2018-02-18T02:04:16.260Z,38.51
2018-02-18T02:05:16.256Z,38.59
2018-02-18T02:06:16.264Z,38.72
2018-02-18T02:07:16.260Z,38.65
2018-02-18T02:08:16.249Z,38.6
2018-02-18T02:09:16.261Z,38.42
2018-02-18T02:10:16.262Z,38.56
2018-02-18T02:11:16.250Z,38.54
2018-02-18T02:12:16.265Z,38.59
2018-02-18T02:13:16.252Z,38.59
2018-02-18T02:14:16.261Z,38.63
2018-02-18T02:15:16.252Z,38.65
2018-02-18T02:16:16.259Z,38.61
2018-02-18T02:17:16.273Z,38.45
2018-02-18T02:18:16.301Z,38.4
2018-02-18T02:19:16.251Z,38.62
2018-02-18T02:20:16.267Z,38.62
2018-02-18T02:21:16.254Z,38.6
2018-02-18T02:22:16.274Z,38.55
2018-02-18T02:23:16.262Z,38.68
2018-02-18T02:24:16.250Z,38.53
2018-02-18T02:25:16.254Z,38.59
2018-02-18T02:26:16.252Z,38.56
2018-02-18T02:27:16.249Z,38.52
2018-02-18T02:28:16.248Z,38.53
2018-02-18T02:29:16.245Z,38.48
2018-02-18T02:30:16.247Z,38.7
2018-02-18T02:31:16.278Z,38.62
2018-02-18T02:32:16.253Z,38.58
2018-02-18T02:33:16.270Z,38.78
2018-02-18T02:34:16.304Z,38.57
2018-02-18T02:35:16.245Z,38.55
2018-02-18T02:36:16.248Z,38.64
2018-02-18T02:37:16.240Z,38.56
2018-02-18T02:38:16.243Z,38.53
2018-02-18T02:39:16.244Z,38.62
2018-02-18T02:40:16.253Z,38.46
2018-02-18T02:41:16.247Z,38.6
2018-02-18T02:42:16.239Z,38.43
2018-02-18T02:43:16.243Z,38.54
2018-02-18T02:44:16.261Z,38.67
2018-02-18T02:45:16.246Z,38.57
2018-02-18T02:46:16.258Z,38.54
2018-02-18T02:47:16.249Z,38.67
2018-02-18T02:48:16.237Z,38.62
2018-02-18T02:49:16.101Z,38.63
2018-02-18T02:50:16.236Z,38.55
2018-02-18T02:51:16.253Z,38.69
2018-02-18T02:52:16.420Z,38.71
2018-02-18T02:53:16.268Z,38.62
2018-02-18T02:54:16.241Z,38.64
2018-02-18T02:55:16.237Z,38.77
2018-02-18T02:56:16.235Z,38.45
2018-02-18T02:57:16.249Z,38.68
2018-02-18T02:58:16.294Z,38.55
2018-02-18T02:59:16.231Z,38.72
2018-02-18T03:00:16.275Z,38.8
2018-02-18T03:01:16.237Z,38.69
2018-02-18T03:02:16.263Z,38.67
2018-02-18T03:03:16.600Z,38.54
2018-02-18T03:04:16.234Z,38.57
2018-02-18T03:05:16.228Z,38.53
2018-02-18T03:06:16.222Z,38.74
2018-02-18T03:07:16.234Z,38.62
2018-02-18T03:08:16.245Z,38.56
2018-02-18T03:09:16.234Z,38.63
2018-02-18T03:10:16.224Z,38.71
2018-02-18T03:11:16.236Z,38.83
2018-02-18T03:12:16.238Z,38.63
2018-02-18T03:13:16.249Z,38.69
2018-02-18T03:14:16.238Z,38.68
2018-02-18T03:15:16.224Z,38.57
2018-02-18T03:16:16.239Z,38.75
2018-02-18T03:17:16.232Z,38.54
2018-02-18T03:18:16.253Z,38.82
2018-02-18T03:19:16.236Z,38.59
2018-02-18T03:20:16.246Z,38.61
2018-02-18T03:21:16.360Z,38.71
2018-02-18T03:22:16.235Z,38.7
2018-02-18T03:23:16.250Z,38.76
2018-02-18T03:24:16.222Z,38.63
2018-02-18T03:25:16.243Z,38.61
2018-02-18T03:26:16.227Z,38.6
2018-02-18T03:27:16.218Z,38.82
2018-02-18T03:28:16.233Z,38.79
2018-02-18T03:29:16.238Z,38.51
2018-02-18T03:30:16.194Z,38.75
2018-02-18T03:31:16.228Z,38.78
2018-02-18T03:32:16.233Z,38.55
2018-02-18T03:33:16.251Z,38.61
2018-02-18T03:34:16.247Z,38.54
2018-02-18T03:35:16.220Z,38.69
2018-02-18T03:36:16.226Z,38.65
2018-02-18T03:37:16.240Z,38.83
2018-02-18T03:38:16.248Z,38.54
2018-02-18T03:39:16.242Z,38.65
2018-02-18T03:40:16.230Z,38.79
2018-02-18T03:41:16.221Z,38.6
2018-02-18T03:42:16.227Z,38.57
2018-02-18T03:43:16.218Z,38.63
2018-02-18T03:44:16.232Z,38.82
2018-02-18T03:45:16.299Z,38.58
2018-02-18T03:46:16.230Z,38.68
2018-02-18T03:47:16.225Z,38.71
2018-02-18T03:48:16.217Z,38.74
2018-02-18T03:49:16.219Z,38.66
2018-02-18T03:50:16.252Z,38.65
2018-02-18T03:51:16.213Z,38.51
2018-02-18T03:52:16.215Z,38.63
2018-02-18T03:53:16.230Z,38.57
2018-02-18T03:54:16.218Z,38.67
2018-02-18T03:55:16.217Z,38.69
2018-02-18T03:56:16.231Z,38.59
2018-02-18T03:57:16.221Z,38.72
2018-02-18T03:58:16.224Z,38.64
2018-02-18T03:59:16.219Z,38.64
2018-02-18T04:00:16.217Z,38.51
2018-02-18T04:01:16.242Z,38.52
2018-02-18T04:02:16.242Z,38.5
2018-02-18T04:03:16.212Z,38.57
2018-02-18T04:04:16.219Z,38.57
2018-02-18T04:05:16.217Z,38.57
2018-02-18T04:06:16.214Z,38.66
2018-02-18T04:07:16.230Z,38.64
2018-02-18T04:08:16.218Z,38.67
2018-02-18T04:09:16.219Z,38.64
2018-02-18T04:10:16.224Z,38.85
2018-02-18T04:11:16.227Z,38.66
2018-02-18T04:12:16.210Z,38.55
2018-02-18T04:13:16.207Z,38.5
2018-02-18T04:14:16.254Z,38.7
2018-02-18T04:15:16.302Z,38.6
2018-02-18T04:16:16.226Z,38.57
2018-02-18T04:17:16.205Z,38.55
2018-02-18T04:18:16.213Z,38.8
2018-02-18T04:19:16.216Z,38.62
2018-02-18T04:20:16.215Z,38.65
2018-02-18T04:21:16.223Z,38.63
2018-02-18T04:22:16.226Z,38.68
2018-02-18T04:23:16.204Z,38.68
2018-02-18T04:24:16.209Z,38.63
2018-02-18T04:25:16.209Z,38.59
2018-02-18T04:26:16.233Z,38.57
2018-02-18T04:27:16.231Z,38.56
2018-02-18T04:28:16.208Z,38.65
2018-02-18T04:29:16.216Z,38.59
2018-02-18T04:30:16.212Z,38.6
2018-02-18T04:31:16.244Z,38.63
2018-02-18T04:32:16.236Z,38.74
2018-02-18T04:33:16.218Z,38.68
2018-02-18T04:34:16.198Z,38.61
2018-02-18T04:35:16.203Z,38.5
2018-02-18T04:36:16.195Z,38.53
2018-02-18T04:37:16.251Z,38.47
2018-02-18T04:38:16.214Z,38.55
2018-02-18T04:39:16.201Z,38.62
2018-02-18T04:40:16.198Z,38.53
2018-02-18T04:41:16.220Z,38.59
2018-02-18T04:42:16.219Z,38.56
2018-02-18T04:43:16.213Z,38.56
2018-02-18T04:44:16.199Z,38.64
2018-02-18T04:45:16.188Z,38.6
2018-02-18T04:46:16.201Z,38.5
2018-02-18T04:47:16.205Z,38.48
2018-02-18T04:48:16.333Z,38.73
2018-02-18T04:49:16.197Z,38.72
2018-02-18T04:50:16.213Z,38.64
2018-02-18T04:51:16.218Z,38.6
2018-02-18T04:52:16.204Z,38.51
2018-02-18T04:53:16.220Z,38.57
2018-02-18T04:54:16.225Z,38.42
2018-02-18T04:55:16.184Z,38.44
2018-02-18T04:56:16.211Z,38.5
2018-02-18T04:57:16.200Z,38.41
2018-02-18T04:58:16.198Z,38.44
2018-02-18T04:59:16.228Z,38.47
2018-02-18T05:00:16.196Z,38.44
2018-02-18T05:01:16.201Z,38.46
2018-02-18T05:02:16.190Z,38.49
2018-02-18T05:03:16.229Z,38.48
2018-02-18T05:04:16.214Z,38.57
2018-02-18T05:05:16.218Z,38.53
2018-02-18T05:06:16.199Z,38.54
2018-02-18T05:07:16.225Z,38.54
2018-02-18T05:08:16.191Z,38.52
2018-02-18T05:09:16.191Z,38.63
2018-02-18T05:10:16.199Z,38.64
2018-02-18T05:11:16.216Z,38.59
2018-02-18T05:12:16.183Z,38.63
2018-02-18T05:13:16.186Z,38.52
2018-02-18T05:14:16.214Z,38.67
2018-02-18T05:15:16.240Z,38.63
2018-02-18T05:16:16.188Z,38.67
2018-02-18T05:17:16.186Z,38.55
2018-02-18T05:18:16.203Z,38.8
2018-02-18T05:19:16.187Z,38.65
2018-02-18T05:20:16.188Z,38.69
2018-02-18T05:21:16.213Z,38.7
2018-02-18T05:22:16.283Z,38.74
2018-02-18T05:23:16.196Z,38.67
2018-02-18T05:24:16.191Z,38.78
2018-02-18T05:25:16.193Z,38.9
2018-02-18T05:26:16.290Z,38.6
2018-02-18T05:27:16.190Z,38.62
2018-02-18T05:28:16.188Z,38.84
2018-02-18T05:29:16.189Z,38.46
2018-02-18T05:30:16.179Z,38.7
2018-02-18T05:31:16.209Z,38.6
2018-02-18T05:32:16.195Z,38.67
2018-02-18T05:33:16.183Z,38.78
2018-02-18T05:34:16.196Z,38.7
2018-02-18T05:35:16.186Z,38.6
2018-02-18T05:36:16.206Z,38.53
2018-02-18T05:37:16.189Z,38.53
2018-02-18T05:38:16.188Z,38.5
2018-02-18T05:39:16.197Z,38.57
2018-02-18T05:40:16.184Z,38.51
2018-02-18T05:41:16.211Z,38.61
2018-02-18T05:42:16.449Z,38.48
2018-02-18T05:43:16.187Z,38.56
2018-02-18T05:44:16.184Z,38.52
2018-02-18T05:45:16.181Z,38.51
2018-02-18T05:46:16.182Z,38.52
2018-02-18T05:47:16.195Z,38.54
2018-02-18T05:48:16.182Z,38.49
2018-02-18T05:49:16.168Z,38.53
2018-02-18T05:50:16.171Z,38.5
2018-02-18T05:51:16.210Z,38.43
2018-02-18T05:52:16.217Z,38.57
2018-02-18T05:53:16.171Z,38.45
2018-02-18T05:54:16.190Z,38.43
2018-02-18T05:55:16.175Z,38.59
2018-02-18T05:56:16.189Z,38.48
2018-02-18T05:57:16.205Z,38.5
2018-02-18T05:58:16.170Z,38.46
2018-02-18T05:59:16.179Z,38.51
2018-02-18T06:00:16.186Z,38.45
2018-02-18T06:01:16.183Z,38.44
2018-02-18T06:02:16.193Z,38.45
2018-02-18T06:03:16.177Z,38.48
2018-02-18T06:04:16.178Z,38.43
2018-02-18T06:05:16.176Z,38.41
2018-02-18T06:06:16.180Z,38.46
2018-02-18T06:07:16.200Z,38.49
2018-02-18T06:08:16.195Z,38.45
2018-02-18T06:09:16.186Z,38.46
2018-02-18T06:10:16.161Z,38.45
2018-02-18T06:11:16.169Z,38.46
2018-02-18T06:12:16.222Z,38.42
2018-02-18T06:13:16.166Z,38.37
2018-02-18T06:14:16.176Z,38.47
2018-02-18T06:15:16.224Z,38.52
2018-02-18T06:16:16.174Z,38.45
2018-02-18T06:17:16.203Z,38.43
2018-02-18T06:18:16.172Z,38.42
2018-02-18T06:19:16.184Z,38.32
2018-02-18T06:20:16.195Z,38.33
2018-02-18T06:21:16.180Z,38.3
2018-02-18T06:22:16.195Z,38.33
2018-02-18T06:23:16.169Z,38.32
2018-02-18T06:24:16.162Z,38.37
2018-02-18T06:25:16.194Z,38.36
2018-02-18T06:26:16.175Z,38.36
2018-02-18T06:27:16.173Z,38.32
2018-02-18T06:28:16.161Z,38.4
2018-02-18T06:29:16.140Z,38.36
2018-02-18T06:30:16.182Z,38.35
2018-02-18T06:31:16.164Z,38.22
2018-02-18T06:32:16.178Z,38.1
2018-02-18T06:33:16.191Z,38.17
2018-02-18T06:34:16.348Z,38.26
2018-02-18T06:35:16.170Z,38.24
2018-02-18T06:36:16.198Z,38.31
2018-02-18T06:37:16.209Z,38.26
2018-02-18T06:38:16.239Z,38.19
2018-02-18T06:39:16.187Z,38.27
2018-02-18T06:40:16.160Z,38.27
2018-02-18T06:41:16.190Z,38.21
2018-02-18T06:42:16.169Z,38.21
2018-02-18T06:43:16.166Z,38.09
2018-02-18T06:44:16.232Z,38.08
2018-02-18T06:45:16.167Z,38.3
2018-02-18T06:46:16.163Z,38.15
2018-02-18T06:47:16.173Z,38.11
2018-02-18T06:48:16.153Z,38.22
2018-02-18T06:49:16.184Z,38.16
2018-02-18T06:50:16.149Z,38.24
2018-02-18T06:51:16.162Z,38.16
2018-02-18T06:52:16.178Z,38.1
2018-02-18T06:53:16.151Z,38.18
2018-02-18T06:54:16.188Z,38.15
2018-02-18T06:55:16.163Z,38.2
2018-02-18T06:56:16.154Z,38.09
2018-02-18T06:57:16.297Z,38.21
2018-02-18T06:58:16.167Z,38.1
2018-02-18T06:59:16.116Z,38.16
2018-02-18T07:00:16.177Z,38.15
2018-02-18T07:01:16.152Z,38.07
2018-02-18T07:02:16.190Z,38.07
2018-02-18T07:03:16.155Z,38.07
2018-02-18T07:04:16.154Z,37.92
2018-02-18T07:05:16.183Z,37.96
2018-02-18T07:06:16.149Z,38.08
2018-02-18T07:07:16.183Z,38.08
2018-02-18T07:08:16.153Z,38.07
2018-02-18T07:09:16.148Z,38.04
2018-02-18T07:10:16.164Z,37.98
2018-02-18T07:11:16.149Z,38.07
2018-02-18T07:12:16.179Z,38.02
2018-02-18T07:13:16.156Z,37.97
2018-02-18T07:14:16.175Z,37.99
2018-02-18T07:15:16.148Z,38.02
2018-02-18T07:16:16.158Z,38.02
2018-02-18T07:17:16.275Z,37.96
2018-02-18T07:18:16.165Z,38.04
2018-02-18T07:19:16.176Z,37.92
2018-02-18T07:20:16.173Z,38.01
2018-02-18T07:21:16.164Z,37.98
2018-02-18T07:22:16.144Z,37.92
2018-02-18T07:23:16.270Z,37.96
2018-02-18T07:24:16.147Z,37.96
2018-02-18T07:25:16.245Z,37.93
2018-02-18T07:26:16.169Z,37.97
2018-02-18T07:27:16.138Z,37.99
2018-02-18T07:28:16.174Z,37.87
2018-02-18T07:29:16.129Z,37.97
2018-02-18T07:30:16.147Z,37.88
2018-02-18T07:31:16.158Z,37.84
2018-02-18T07:32:16.148Z,37.88
2018-02-18T07:33:16.267Z,37.91
2018-02-18T07:34:16.174Z,37.83
2018-02-18T07:35:16.152Z,37.87
2018-02-18T07:36:16.153Z,37.79
2018-02-18T07:37:16.164Z,37.84
2018-02-18T07:38:16.142Z,37.86
2018-02-18T07:39:16.139Z,37.88
2018-02-18T07:40:16.144Z,37.89
2018-02-18T07:41:16.244Z,37.79
2018-02-18T07:42:16.156Z,37.77
2018-02-18T07:43:16.182Z,37.84
2018-02-18T07:44:16.135Z,37.84
2018-02-18T07:45:16.147Z,37.79
2018-02-18T07:46:16.131Z,37.78
2018-02-18T07:47:16.170Z,37.85
2018-02-18T07:48:16.166Z,37.75
2018-02-18T07:49:16.197Z,37.84
2018-02-18T07:50:16.139Z,37.79
2018-02-18T07:51:16.129Z,37.82
2018-02-18T07:52:16.133Z,37.75
2018-02-18T07:53:16.261Z,37.77
2018-02-18T07:54:16.130Z,37.77
2018-02-18T07:55:16.138Z,37.77
2018-02-18T07:56:16.138Z,37.84
2018-02-18T07:57:16.174Z,37.63
2018-02-18T07:58:16.156Z,37.72
2018-02-18T07:59:16.140Z,37.75
2018-02-18T08:00:16.142Z,37.71
2018-02-18T08:01:16.138Z,37.77
2018-02-18T08:02:16.141Z,37.78
2018-02-18T08:03:16.154Z,37.85
2018-02-18T08:04:16.401Z,37.71
2018-02-18T08:05:16.126Z,37.68
2018-02-18T08:06:16.189Z,37.74
2018-02-18T08:07:16.132Z,37.63
2018-02-18T08:08:16.138Z,37.73
2018-02-18T08:09:16.157Z,37.72
2018-02-18T08:10:16.144Z,37.62
2018-02-18T08:11:16.125Z,37.73
2018-02-18T08:12:16.144Z,37.6
2018-02-18T08:13:16.138Z,37.68
2018-02-18T08:14:16.159Z,37.52
2018-02-18T08:15:16.140Z,37.55
2018-02-18T08:16:16.154Z,37.68
2018-02-18T08:17:16.138Z,37.59
2018-02-18T08:18:16.128Z,37.6
2018-02-18T08:19:16.133Z,37.57
2018-02-18T08:20:16.130Z,37.59
2018-02-18T08:21:16.124Z,37.58
2018-02-18T08:22:16.127Z,37.65
2018-02-18T08:23:16.119Z,37.55
2018-02-18T08:24:16.162Z,37.59
2018-02-18T08:25:16.135Z,37.61
2018-02-18T08:26:16.128Z,37.62
2018-02-18T08:27:16.096Z,37.6
2018-02-18T08:28:16.115Z,37.61
2018-02-18T08:29:16.385Z,37.6
2018-02-18T08:30:16.126Z,37.5
2018-02-18T08:31:16.130Z,37.59
2018-02-18T08:32:16.163Z,37.53
2018-02-18T08:33:16.130Z,37.59
2018-02-18T08:34:16.169Z,37.54
2018-02-18T08:35:16.154Z,37.58
2018-02-18T08:36:16.116Z,37.55
2018-02-18T08:37:16.187Z,37.59
2018-02-18T08:38:16.125Z,37.55
2018-02-18T08:39:16.145Z,37.61
2018-02-18T08:40:16.129Z,37.54
2018-02-18T08:41:16.155Z,37.55
2018-02-18T08:42:16.111Z,37.64
2018-02-18T08:43:16.151Z,37.5
2018-02-18T08:44:16.174Z,37.56
2018-02-18T08:45:16.191Z,37.49
2018-02-18T08:46:16.125Z,37.55
2018-02-18T08:47:16.118Z,37.43
2018-02-18T08:48:16.121Z,37.51
2018-02-18T08:49:16.144Z,37.53
2018-02-18T08:50:16.116Z,37.47
2018-02-18T08:51:16.123Z,37.49
2018-02-18T08:52:16.123Z,37.39
2018-02-18T08:53:16.133Z,37.47
2018-02-18T08:54:16.150Z,37.47
2018-02-18T08:55:16.132Z,37.4
2018-02-18T08:56:16.183Z,37.53
2018-02-18T08:57:16.139Z,37.39
2018-02-18T08:58:16.202Z,37.42
2018-02-18T08:59:16.152Z,37.4
2018-02-18T09:00:16.145Z,37.54
2018-02-18T09:01:16.117Z,37.56
2018-02-18T09:02:16.124Z,37.5
2018-02-18T09:03:16.127Z,37.38
2018-02-18T09:04:16.197Z,37.48
2018-02-18T09:05:16.128Z,37.43
2018-02-18T09:06:16.281Z,37.47
2018-02-18T09:07:16.140Z,37.45
2018-02-18T09:08:16.190Z,37.42
2018-02-18T09:09:16.194Z,37.48
2018-02-18T09:10:16.209Z,37.49
2018-02-18T09:11:16.202Z,37.46
2018-02-18T09:12:16.125Z,37.49
2018-02-18T09:13:16.137Z,37.39
2018-02-18T09:14:16.170Z,37.45
2018-02-18T09:15:16.207Z,38.32
2018-02-18T09:16:16.199Z,37.79
2018-02-18T09:17:16.219Z,37.53
2018-02-18T09:18:16.145Z,37.72
2018-02-18T09:19:16.162Z,37.88
2018-02-18T09:20:16.168Z,37.92
2018-02-18T09:21:16.181Z,38.06
2018-02-18T09:22:16.134Z,38.61
2018-02-18T09:23:16.202Z,37.71
2018-02-18T09:24:16.340Z,37.73
2018-02-18T09:25:16.118Z,37.81
2018-02-18T09:26:16.119Z,37.96
2018-02-18T09:27:16.182Z,38.02
2018-02-18T09:28:16.204Z,38.14
2018-02-18T09:29:16.146Z,38.16
2018-02-18T09:30:16.125Z,38.21
2018-02-18T09:31:16.150Z,38.19
2018-02-18T09:32:16.177Z,38.21
2018-02-18T09:33:16.141Z,38.17
2018-02-18T09:34:16.100Z,38.22
2018-02-18T09:35:16.122Z,38.29
2018-02-18T09:36:16.131Z,38.13
2018-02-18T09:37:16.156Z,38.28
2018-02-18T09:38:16.162Z,38.34
2018-02-18T09:39:16.137Z,38.26
2018-02-18T09:40:16.102Z,38.29
2018-02-18T09:41:16.100Z,38.31
2018-02-18T09:42:16.100Z,38.29
2018-02-18T09:43:16.111Z,38.32
2018-02-18T09:44:16.148Z,38.28
2018-02-18T09:45:16.110Z,38.45
2018-02-18T09:46:16.107Z,38.27
2018-02-18T09:47:16.096Z,38.47
2018-02-18T09:48:16.102Z,38.27
2018-02-18T09:49:16.484Z,38.5
2018-02-18T09:50:16.113Z,38.21
2018-02-18T09:51:16.133Z,38.37
2018-02-18T09:52:16.282Z,38.36
2018-02-18T09:53:16.109Z,38.68
2018-02-18T09:54:16.124Z,38.32
2018-02-18T09:55:16.102Z,38.66
2018-02-18T09:56:16.100Z,38.57
2018-02-18T09:57:16.096Z,38.74
2018-02-18T09:58:16.110Z,38.27
2018-02-18T09:59:16.133Z,38.17
2018-02-18T10:00:16.123Z,38.34
2018-02-18T10:01:16.117Z,38.24
2018-02-18T10:02:16.158Z,38.19
2018-02-18T10:03:16.136Z,37.44
2018-02-18T10:04:16.130Z,37.35
2018-02-18T10:05:16.123Z,37.8
2018-02-18T10:06:16.148Z,37.62
2018-02-18T10:07:16.165Z,37.17
2018-02-18T10:08:16.122Z,37.43
2018-02-18T10:09:16.096Z,37.44
2018-02-18T10:10:16.095Z,37.51
2018-02-18T10:11:16.132Z,37.6
2018-02-18T10:12:16.153Z,37.51
2018-02-18T10:13:16.110Z,37.55
2018-02-18T10:14:16.251Z,37.64
2018-02-18T10:15:16.111Z,37.72
2018-02-18T10:16:16.114Z,37.71
2018-02-18T10:17:16.125Z,37.77
2018-02-18T10:18:16.151Z,37.77
2018-02-18T10:19:16.113Z,37.89
2018-02-18T10:20:16.094Z,37.86
2018-02-18T10:21:16.125Z,37.78
2018-02-18T10:22:16.128Z,37.71
2018-02-18T10:23:16.136Z,38.04
2018-02-18T10:24:16.500Z,38.18
2018-02-18T10:25:16.245Z,37.88
2018-02-18T10:26:16.324Z,37.86
2018-02-18T10:27:16.178Z,38.03
2018-02-18T10:28:16.117Z,37.91
2018-02-18T10:29:16.108Z,38.03
2018-02-18T10:30:16.078Z,38.05
2018-02-18T10:31:16.090Z,38.06
2018-02-18T10:32:16.162Z,38
2018-02-18T10:33:16.112Z,37.98
2018-02-18T10:34:16.134Z,38.14
2018-02-18T10:35:16.082Z,37.68
2018-02-18T10:36:16.162Z,38.02
2018-02-18T10:37:16.165Z,37.89
2018-02-18T10:38:16.105Z,37.95
2018-02-18T10:39:16.108Z,37.87
2018-02-18T10:40:16.275Z,38.18
2018-02-18T10:41:16.089Z,37.9
2018-02-18T10:42:16.105Z,38.08
2018-02-18T10:43:16.059Z,38.1
2018-02-18T10:44:16.084Z,38.07
2018-02-18T10:45:16.133Z,37.89
2018-02-18T10:46:16.087Z,37.94
2018-02-18T10:47:16.097Z,38.17
2018-02-18T10:48:16.161Z,38.25
2018-02-18T10:49:16.078Z,38.14
2018-02-18T10:50:16.086Z,38.19
2018-02-18T10:51:16.118Z,38.16
2018-02-18T10:52:16.081Z,38.28
2018-02-18T10:53:16.103Z,38.02
2018-02-18T10:54:16.175Z,38.12
2018-02-18T10:55:16.085Z,38.54
2018-02-18T10:56:16.114Z,38.5
2018-02-18T10:57:16.084Z,38.44
2018-02-18T10:58:16.352Z,38.72
2018-02-18T10:59:16.063Z,38.81
2018-02-18T11:00:16.087Z,38.32
2018-02-18T11:01:16.075Z,37.88
2018-02-18T11:02:16.084Z,38.19
2018-02-18T11:03:16.131Z,38.38
2018-02-18T11:04:16.073Z,38.4
2018-02-18T11:05:16.083Z,38.53
2018-02-18T11:06:16.073Z,38.4
2018-02-18T11:07:16.094Z,38.33
2018-02-18T11:08:16.101Z,38.53
2018-02-18T11:09:16.071Z,38.49
2018-02-18T11:10:16.078Z,38.31
2018-02-18T11:11:16.080Z,38.24
2018-02-18T11:12:16.083Z,38.11
2018-02-18T11:13:16.099Z,38.21
2018-02-18T11:14:16.076Z,38.31
2018-02-18T11:15:16.072Z,38.22
2018-02-18T11:16:16.024Z,37.9
2018-02-18T11:17:16.082Z,38.01
2018-02-18T11:18:16.174Z,38.09
2018-02-18T11:19:16.078Z,37.94
2018-02-18T11:20:16.069Z,38.01
2018-02-18T11:21:16.114Z,38.13
2018-02-18T11:22:16.078Z,38.19
2018-02-18T11:23:16.100Z,38.37
2018-02-18T11:24:16.289Z,38.33
2018-02-18T11:25:16.079Z,38.32
2018-02-18T11:26:16.079Z,38.3
2018-02-18T11:27:16.076Z,38.26
2018-02-18T11:28:16.079Z,38.28
2018-02-18T11:29:16.084Z,38
2018-02-18T11:30:16.172Z,38.12
2018-02-18T11:31:16.127Z,38.08
2018-02-18T11:32:16.070Z,38.24
2018-02-18T11:33:16.118Z,38.1
2018-02-18T11:34:16.083Z,38.36
2018-02-18T11:35:16.090Z,38.11
2018-02-18T11:36:16.180Z,38.38
2018-02-18T11:37:16.080Z,37.74
2018-02-18T11:38:16.029Z,37.55
2018-02-18T11:39:16.069Z,37.53
2018-02-18T11:40:16.077Z,37.75
2018-02-18T11:41:16.092Z,37.87
2018-02-18T11:42:16.062Z,37.88
2018-02-18T11:43:16.056Z,37.9
2018-02-18T11:44:16.071Z,37.99
2018-02-18T11:45:16.107Z,37.73
2018-02-18T11:46:16.091Z,38.11
2018-02-18T11:47:16.079Z,38.28
2018-02-18T11:48:16.095Z,38.06
2018-02-18T11:49:16.062Z,37.96
2018-02-18T11:50:16.072Z,37.75
2018-02-18T11:51:16.085Z,37.69
2018-02-18T11:52:16.152Z,37.69
2018-02-18T11:53:16.056Z,37.78
2018-02-18T11:54:16.349Z,37.64
2018-02-18T11:55:16.066Z,37.62
2018-02-18T11:56:16.065Z,37.65
2018-02-18T11:57:16.088Z,37.72
2018-02-18T11:58:16.061Z,37.68
2018-02-18T11:59:16.114Z,37.72
2018-02-18T12:00:16.063Z,37.66
2018-02-18T12:01:16.064Z,37.66
2018-02-18T12:02:16.078Z,37.68
2018-02-18T12:03:16.071Z,37.63
2018-02-18T12:04:16.078Z,37.65
2018-02-18T12:05:16.048Z,37.59
2018-02-18T12:06:16.089Z,37.64
2018-02-18T12:07:16.047Z,37.65
2018-02-18T12:08:16.086Z,37.62
2018-02-18T12:09:16.143Z,37.62
2018-02-18T12:10:16.052Z,37.59
2018-02-18T12:11:16.061Z,37.58
2018-02-18T12:12:16.060Z,37.56
2018-02-18T12:13:16.055Z,37.61
2018-02-18T12:14:16.091Z,37.6
2018-02-18T12:15:16.140Z,37.58
2018-02-18T12:16:16.049Z,37.63
2018-02-18T12:17:16.059Z,37.69
2018-02-18T12:18:16.081Z,37.66
2018-02-18T12:19:16.128Z,37.58
2018-02-18T12:20:16.068Z,37.61
2018-02-18T12:21:16.052Z,37.62
2018-02-18T12:22:16.058Z,37.64
2018-02-18T12:23:16.045Z,37.66
2018-02-18T12:24:16.112Z,37.66
2018-02-18T12:25:16.046Z,37.59
2018-02-18T12:26:16.047Z,37.6
2018-02-18T12:27:16.079Z,37.56
2018-02-18T12:28:16.035Z,37.77
2018-02-18T12:29:16.077Z,37.7
2018-02-18T12:30:16.100Z,37.76
2018-02-18T12:31:16.109Z,37.74
2018-02-18T12:32:16.063Z,37.78
2018-02-18T12:33:16.149Z,37.77
2018-02-18T12:34:16.178Z,37.78
2018-02-18T12:35:16.061Z,37.74
2018-02-18T12:36:16.096Z,37.75
2018-02-18T12:37:16.040Z,37.61
2018-02-18T12:38:16.049Z,37.5
2018-02-18T12:39:16.046Z,37.45
2018-02-18T12:40:16.063Z,37.41
2018-02-18T12:41:16.066Z,37.47
2018-02-18T12:42:16.060Z,37.51
2018-02-18T12:43:16.057Z,37.55
2018-02-18T12:44:16.040Z,37.49
2018-02-18T12:45:16.041Z,37.51
2018-02-18T12:46:16.079Z,37.38
2018-02-18T12:47:16.058Z,37.51
2018-02-18T12:48:16.083Z,37.49
2018-02-18T12:49:16.097Z,37.53
2018-02-18T12:50:16.029Z,37.29
2018-02-18T12:51:16.156Z,37.48
2018-02-18T12:52:16.025Z,37.52
2018-02-18T12:53:16.080Z,37.4
2018-02-18T12:54:16.036Z,37.49
2018-02-18T12:55:16.035Z,37.56